ADDS METAR Data INFO
IDs: Format: Raw Decoded Include TAF

Data at: 0840 UTC 27 Jun 2017

KF17 270835Z AUTO 00000KT 10SM OVC032 24/23 A3005 RMK AO2 T02410233
KF17 270815Z AUTO 00000KT 10SM SCT032 BKN037 BKN043 24/23 A3005 RMK AO2 T02400232
KF17 270755Z AUTO 00000KT 10SM BKN034 BKN042 24/23 A3005 RMK AO2 T02390231
KF17 270735Z AUTO 00000KT 10SM SCT031 BKN036 BKN046 24/23 A3006 RMK AO2 T02360229
KF17 270715Z AUTO 00000KT 10SM BKN040 BKN048 24/23 A3006 RMK AO2 T02370229
KF17 270655Z AUTO 00000KT 10SM SCT040 24/23 A3006 RMK AO2 T02390231
KF17 270635Z AUTO 00000KT 10SM CLR 24/23 A3006 RMK AO2 T02350227
KF17 270615Z AUTO 00000KT 10SM CLR 24/23 A3006 RMK AO2 T02410233
KF17 270555Z AUTO 00000KT 10SM CLR 24/23 A3006 RMK AO2 T02410233 10297 20240 403190209
KF17 270535Z AUTO 00000KT 10SM CLR 24/23 A3007 RMK AO2 T02410233
KF17 270515Z AUTO 00000KT 10SM CLR 24/23 A3007 RMK AO2 T02420234
KF17 270455Z AUTO 00000KT 10SM CLR 24/23 A3006 RMK AO2 T02410233
KF17 270435Z AUTO 00000KT 10SM CLR 24/24 A3006 RMK AO2 T02440236
KF17 270415Z AUTO 00000KT 10SM CLR 25/24 A3006 RMK AO2 T02460238
KF17 270355Z AUTO 00000KT 10SM CLR 25/24 A3005 RMK AO2 T02500240
KF17 270335Z AUTO 00000KT 10SM CLR 25/24 A3005 RMK AO2 T02500241
KF17 270315Z AUTO 00000KT 10SM CLR 26/24 A3005 RMK AO2 T02580235
KF17 270255Z AUTO 00000KT 10SM CLR 26/24 A3005 RMK AO2 T02580237
KF17 270235Z AUTO 00000KT 10SM CLR 26/24 A3005 RMK AO2 T02590243
KF17 270215Z AUTO 00000KT 10SM CLR 26/25 A3005 RMK AO2 T02620246
KF17 270155Z AUTO 00000KT 10SM CLR 27/24 A3004 RMK AO2 T02680237
KF17 270135Z AUTO 00000KT 10SM CLR 27/23 A3003 RMK AO2 T02720234
KF17 270115Z AUTO 00000KT 10SM CLR 28/23 A3003 RMK AO2 T02810229
KF17 270055Z AUTO 00000KT 10SM CLR 29/23 A3004 RMK AO2 T02850225
KF17 270035Z AUTO 12003KT 10SM CLR 29/22 A3004 RMK AO2 T02910220
KF17 270015Z AUTO 12003KT 10SM CLR 30/22 A3004 RMK AO2 T02960216
KF17 262355Z AUTO 11003KT 10SM CLR 30/21 A3004 RMK AO2 T02970212 10319 20297
KF17 262335Z AUTO 09003KT 10SM CLR 30/21 A3004 RMK AO2 T03020209
KF17 262315Z AUTO 11006KT 10SM CLR 31/21 A3003 RMK AO2 T03110209
KF17 262255Z AUTO 07005KT 10SM CLR 31/21 A3003 RMK AO2 T03130206
KF17 262235Z AUTO 08005KT 10SM SCT040 31/21 A3004 RMK AO2 T03140208
KF17 262215Z AUTO 08004KT 10SM SCT042 32/21 A3005 RMK AO2 T03150212
KF17 262155Z AUTO 10006KT 10SM SCT042 31/21 A3005 RMK AO2 T03130206
KF17 262135Z AUTO 13004KT 10SM CLR 31/21 A3005 RMK AO2 T03120206
KF17 262115Z AUTO 07005KT 10SM CLR 32/21 A3006 RMK AO2 T03170211
KF17 262055Z AUTO 06004KT 10SM CLR 31/21 A3006 RMK AO2 T03110205
KF17 262035Z AUTO 08004KT 10SM CLR 31/21 A3007 RMK AO2 T03140206
KF17 262015Z AUTO 02003KT 10SM CLR 31/20 A3008 RMK AO2 T03100203
KF17 261955Z AUTO 08004KT 10SM CLR 31/20 A3008 RMK AO2 T03100200
KF17 261935Z AUTO 08003KT 10SM CLR 31/20 A3009 RMK AO2 T03100202
KF17 261915Z AUTO 09004KT 10SM CLR 31/20 A3010 RMK AO2 T03070203
KF17 261855Z AUTO 01005KT 10SM CLR 31/20 A3010 RMK AO2 T03100198
KF17 261835Z AUTO 04004KT 10SM CLR 30/19 A3011 RMK AO2 T03030190
KF17 261815Z AUTO 02003KT 10SM CLR 30/19 A3012 RMK AO2 T03020194
KF17 261755Z AUTO 00000KT 10SM CLR 30/19 A3013 RMK AO2 T02980190 10301 20213
KF17 261735Z AUTO 00000KT 10SM CLR 30/19 A3014 RMK AO2 T03000190
KF17 261715Z AUTO 06003KT 10SM SCT100 29/18 A3015 RMK AO2 T02940180
KF17 261655Z AUTO 05003KT 10SM SCT100 29/18 A3015 RMK AO2 T02900179
KF17 261635Z AUTO 02006KT 10SM CLR 29/19 A3015 RMK AO2 T02880187
KF17 261615Z AUTO 03004KT 10SM CLR 28/19 A3016 RMK AO2 T02840191
KF17 261555Z AUTO 01006KT 10SM CLR 28/18 A3016 RMK AO2 T02810182
KF17 261535Z AUTO 01003KT 10SM CLR 27/19 A3017 RMK AO2 T02740188
KF17 261515Z AUTO 00000KT 10SM SCT080 27/19 A3017 RMK AO2 T02690191
KF17 261455Z AUTO 00000KT 10SM BKN080 27/20 A3018 RMK AO2 T02650202
KF17 261435Z AUTO 10005KT 10SM OVC080 26/19 A3018 RMK AO2 T02550193
KF17 261415Z AUTO 00000KT 10SM OVC080 25/19 A3018 RMK AO2 T02510190
KF17 261355Z AUTO 09004KT 10SM BKN080 25/20 A3018 RMK AO2 T02500195
KF17 261335Z AUTO 00000KT 10SM CLR 24/21 A3018 RMK AO2 T02420206
KF17 261315Z AUTO 05003KT 10SM CLR 23/21 A3018 RMK AO2 T02310208
KF17 261255Z AUTO 00000KT 10SM SCT065 23/21 A3018 RMK AO2 T02250212
KF17 261235Z AUTO 01003KT 10SM CLR 22/21 A3017 RMK AO2 T02200211
KF17 261215Z AUTO 00000KT 10SM CLR 22/21 A3016 RMK AO2 T02150207
KF17 261155Z AUTO 00000KT 10SM CLR 21/21 A3015 RMK AO2 T02130205 10224 20209
KF17 261135Z AUTO 00000KT 10SM CLR 21/20 A3016 RMK AO2 T02100203
KF17 261115Z AUTO 10SM CLR 21/20 A3016 RMK AO2 T02110203
KF17 261055Z AUTO 00000KT 10SM CLR 21/20 A3015 RMK AO2 T02110203
KF17 261035Z AUTO 00000KT 10SM CLR 21/20 A3015 RMK AO2 T02090201
KF17 261015Z AUTO 00000KT 10SM CLR 21/20 A3014 RMK AO2 T02110203
KF17 260955Z AUTO 00000KT 10SM CLR 22/21 A3015 RMK AO2 T02150207
KF17 260935Z AUTO 00000KT 10SM CLR 22/21 A3015 RMK AO2 T02150206
KF17 260915Z AUTO 00000KT 10SM CLR 22/21 A3015 RMK AO2 T02150206
KF17 260855Z AUTO 00000KT 10SM CLR 21/21 A3015 RMK AO2 T02130205
KF17 260835Z AUTO 00000KT 10SM CLR 21/21 A3016 RMK AO2 T02140206
KF17 260815Z AUTO 00000KT 10SM CLR 22/21 A3016 RMK AO2 T02150208
KF17 260755Z AUTO 00000KT 10SM SCT095 22/21 A3016 RMK AO2 T02200208
KF17 260735Z AUTO 00000KT 10SM OVC095 22/21 A3015 RMK AO2 T02200210
KF17 260715Z AUTO 00000KT 10SM SCT095 22/21 A3016 RMK AO2 T02210211
KF17 260655Z AUTO 00000KT 10SM CLR 22/21 A3016 RMK AO2 T02220212
KF17 260635Z AUTO 00000KT 10SM SCT100 22/21 A3017 RMK AO2 T02230214
KF17 260615Z AUTO 00000KT 10SM SCT100 22/22 A3018 RMK AO2 T02240215
KF17 260555Z AUTO 00000KT 10SM CLR 22/21 A3018 RMK AO2 T02210213 10282 20221 402990221
KF17 260535Z AUTO 00000KT 10SM CLR 23/22 A3019 RMK AO2 T02260215
KF17 260515Z AUTO 00000KT 10SM CLR 23/22 A3019 RMK AO2 T02260215
KF17 260455Z AUTO 00000KT 10SM CLR 23/22 A3018 RMK AO2 T02280215
KF17 260435Z AUTO 00000KT 10SM CLR 23/21 A3019 RMK AO2 T02300212
KF17 260415Z AUTO 00000KT 10SM CLR 23/21 A3019 RMK AO2 T02300211
KF17 260355Z AUTO 00000KT 10SM CLR 23/21 A3018 RMK AO2 T02310207
KF17 260335Z AUTO 00000KT 10SM CLR 24/20 A3018 RMK AO2 T02350203
KF17 260315Z AUTO 00000KT 10SM CLR 24/20 A3017 RMK AO2 T02370201
KF17 260255Z AUTO 04004KT 10SM CLR 24/20 A3017 RMK AO2 T02380203
KF17 260235Z AUTO 00000KT 10SM CLR 24/21 A3017 RMK AO2 T02420205
KF17 260215Z AUTO 05003KT 10SM CLR 24/21 A3016 RMK AO2 T02430210
KF17 260155Z AUTO 00000KT 10SM CLR 25/20 A3016 RMK AO2 T02520203
KF17 260135Z AUTO 00000KT 10SM CLR 26/21 A3015 RMK AO2 T02550211
KF17 260115Z AUTO 00000KT 10SM CLR 26/22 A3015 RMK AO2 T02630221
KF17 260055Z AUTO 07003KT 10SM SCT033 27/21 A3015 RMK AO2 T02710214
KF17 260035Z AUTO 00000KT 10SM SCT033 28/21 A3015 RMK AO2 T02750209
KF17 260015Z AUTO 05006KT 10SM SCT027 SCT031 28/21 A3014 RMK AO2 T02780208
KF17 252355Z AUTO 06006KT 10SM BKN027 BKN032 28/21 A3014 RMK AO2 T02820213 10299 20271
KF17 252335Z AUTO 07006KT 10SM BKN030 28/22 A3013 RMK AO2 T02790220
KF17 252315Z AUTO 06007KT 030V090 10SM BKN030 28/22 A3013 RMK AO2 T02830217
KF17 252255Z AUTO 05005KT 10SM BKN030 28/21 A3014 RMK AO2 T02830213
KF17 252235Z AUTO 06005KT 10SM BKN030 30/22 A3014 RMK AO2 T02970216
KF17 252215Z AUTO 06004KT 10SM BKN032 BKN095 29/22 A3015 RMK AO2 T02940217
KF17 252155Z AUTO 04006KT 10SM SCT030 BKN035 OVC095 29/21 A3015 RMK AO2 T02910214
KF17 252135Z AUTO 11005KT 10SM BKN095 29/21 A3016 RMK AO2 T02930213
KF17 252115Z AUTO 07004KT 10SM CLR 30/21 A3017 RMK AO2 T02950206
KF17 252055Z AUTO 05005KT 10SM SCT042 30/21 A3018 RMK AO2 T02950208


Page loaded:  08:40 UTC  |   01:40 AM Pacific  |   02:40 AM Mountain  |   03:40 AM Central  |   04:40 AM Eastern

 

ADVISORIES

FORECASTS

FORECASTS

OBSERVATIONS

USER TOOLS

ABOUT US